createdAt,value
2019-05-09T00:00:04.098Z,98858.00
2019-05-09T00:02:38.236Z,98865.00
2019-05-09T00:05:10.700Z,98860.00
2019-05-09T00:07:41.053Z,98868.00
2019-05-09T00:10:14.069Z,98871.00
2019-05-09T00:12:43.839Z,98861.00
2019-05-09T00:15:14.903Z,98878.00
2019-05-09T00:17:46.361Z,98876.00
2019-05-09T00:20:33.796Z,98867.00
2019-05-09T00:23:04.264Z,98865.00
2019-05-09T00:25:35.413Z,98866.00
2019-05-09T00:28:06.258Z,98873.00
2019-05-09T00:30:55.072Z,98871.00
2019-05-09T00:33:28.788Z,98868.00
2019-05-09T00:35:59.167Z,98873.00
2019-05-09T00:38:43.731Z,98871.00
2019-05-09T00:41:14.545Z,98866.00
2019-05-09T00:43:50.814Z,98870.00
2019-05-09T00:46:36.989Z,98876.00
2019-05-09T00:49:09.539Z,98872.00
2019-05-09T00:51:39.988Z,98888.00
2019-05-09T00:54:10.762Z,98885.00
2019-05-09T00:56:43.585Z,98880.00
2019-05-09T00:59:13.963Z,98878.00
2019-05-09T01:01:44.300Z,98882.00
2019-05-09T01:04:15.168Z,98881.00
2019-05-09T01:06:45.565Z,98890.00
2019-05-09T01:09:15.946Z,98874.00
2019-05-09T01:11:46.578Z,98880.00
2019-05-09T01:14:17.055Z,98885.00
2019-05-09T01:16:53.775Z,98882.00
2019-05-09T01:19:25.231Z,98881.00
2019-05-09T01:21:55.937Z,98886.00
2019-05-09T01:24:34.009Z,98887.00
2019-05-09T01:27:04.603Z,98878.00
2019-05-09T01:29:35.762Z,98886.00
2019-05-09T01:32:14.374Z,98887.00
2019-05-09T01:34:44.929Z,98889.00
2019-05-09T01:37:15.661Z,98886.00
2019-05-09T01:39:46.068Z,98884.00
2019-05-09T01:42:16.424Z,98886.00
2019-05-09T01:44:48.865Z,98888.00
2019-05-09T01:47:19.807Z,98887.00
2019-05-09T01:49:50.212Z,98903.00
2019-05-09T01:52:20.591Z,98888.00
2019-05-09T01:54:50.956Z,98894.00
2019-05-09T01:57:23.243Z,98896.00
2019-05-09T01:59:53.781Z,98892.00
2019-05-09T02:02:24.232Z,98888.00
2019-05-09T02:04:54.568Z,98887.00
2019-05-09T02:07:24.978Z,98888.00
2019-05-09T02:09:55.705Z,98883.00
2019-05-09T02:12:26.085Z,98887.00
2019-05-09T02:15:05.216Z,98881.00
2019-05-09T02:17:57.815Z,98890.00
2019-05-09T02:20:18.411Z,98884.00
2019-05-09T02:22:49.064Z,98886.00
2019-05-09T02:25:19.536Z,98896.00
2019-05-09T02:27:49.987Z,98896.00
2019-05-09T02:30:20.547Z,98898.00
2019-05-09T02:32:54.467Z,98897.00
2019-05-09T02:35:23.165Z,98897.00
2019-05-09T02:37:53.521Z,98887.00
2019-05-09T02:40:23.914Z,98894.00
2019-05-09T02:42:54.294Z,98888.00
2019-05-09T02:45:28.403Z,98890.00
2019-05-09T02:47:59.169Z,98886.00
2019-05-09T02:50:29.890Z,98891.00
2019-05-09T02:53:00.491Z,98898.00
2019-05-09T02:55:31.248Z,98888.00
2019-05-09T02:58:02.301Z,98885.00
2019-05-09T03:00:44.336Z,98887.00
2019-05-09T03:03:24.913Z,98884.00
2019-05-09T03:05:55.296Z,98896.00
2019-05-09T03:08:29.348Z,98896.00
2019-05-09T03:10:59.119Z,98898.00
2019-05-09T03:13:29.847Z,98907.00
2019-05-09T03:16:08.556Z,98907.00
2019-05-09T03:18:39.536Z,98903.00
2019-05-09T03:21:29.834Z,98902.00
2019-05-09T03:24:00.221Z,98905.00
2019-05-09T03:26:34.208Z,98905.00
2019-05-09T03:29:19.064Z,98901.00
2019-05-09T03:31:50.541Z,98905.00
2019-05-09T03:34:21.012Z,98904.00
2019-05-09T03:36:51.744Z,98901.00
2019-05-09T03:39:22.141Z,98902.00
2019-05-09T03:41:52.566Z,98897.00
2019-05-09T03:44:23.181Z,98909.00
2019-05-09T03:47:21.631Z,98898.00
2019-05-09T03:50:08.967Z,98905.00
2019-05-09T03:52:39.561Z,98906.00
2019-05-09T03:55:12.081Z,98912.00
2019-05-09T03:57:58.073Z,98916.00
2019-05-09T04:00:28.583Z,98912.00
2019-05-09T04:02:59.190Z,98907.00
2019-05-09T04:05:29.522Z,98915.00
2019-05-09T04:08:18.143Z,98912.00
2019-05-09T04:10:51.240Z,98913.00
2019-05-09T04:13:25.444Z,98911.00
2019-05-09T04:15:58.054Z,98906.00
2019-05-09T04:18:27.864Z,98913.00
2019-05-09T04:20:58.251Z,98907.00
2019-05-09T04:23:28.901Z,98901.00
2019-05-09T04:26:10.807Z,98909.00
2019-05-09T04:28:41.551Z,98907.00
2019-05-09T04:31:12.311Z,98917.00
2019-05-09T04:33:43.740Z,98913.00
2019-05-09T04:36:14.139Z,98917.00
2019-05-09T04:38:44.484Z,98919.00
2019-05-09T04:41:18.398Z,98933.00
2019-05-09T04:43:48.661Z,98921.00
2019-05-09T04:46:24.117Z,98924.00
2019-05-09T04:48:54.071Z,98916.00
2019-05-09T04:51:23.915Z,98928.00
2019-05-09T04:53:54.685Z,98924.00
2019-05-09T04:56:29.521Z,98932.00
2019-05-09T04:58:59.887Z,98928.00
2019-05-09T05:01:43.662Z,98939.00
2019-05-09T05:04:14.027Z,98937.00
2019-05-09T05:06:44.706Z,98939.00
2019-05-09T05:09:15.057Z,98943.00
2019-05-09T05:11:49.065Z,98944.00
2019-05-09T05:14:23.932Z,98950.00
2019-05-09T05:17:03.078Z,98947.00
2019-05-09T05:19:30.935Z,98953.00
2019-05-09T05:22:11.362Z,98958.00
2019-05-09T05:24:48.811Z,98946.00
2019-05-09T05:27:19.119Z,98958.00
2019-05-09T05:29:49.487Z,98958.00
2019-05-09T05:32:33.651Z,98953.00
2019-05-09T05:35:20.063Z,98954.00
2019-05-09T05:37:50.737Z,98953.00
2019-05-09T05:40:21.368Z,98953.00
2019-05-09T05:42:51.719Z,98958.00
2019-05-09T05:45:23.762Z,98954.00
2019-05-09T05:48:01.081Z,98954.00
2019-05-09T05:50:31.531Z,98961.00
2019-05-09T05:53:02.192Z,98958.00
2019-05-09T05:55:33.402Z,98962.00
2019-05-09T05:58:03.734Z,98959.00
2019-05-09T06:00:34.450Z,98972.00
2019-05-09T06:03:05.060Z,98972.00
2019-05-09T06:05:38.199Z,98959.00
2019-05-09T06:08:08.427Z,98966.00
2019-05-09T06:10:39.021Z,98962.00
2019-05-09T06:13:09.653Z,98972.00
2019-05-09T06:15:42.118Z,98966.00
2019-05-09T06:18:12.459Z,98971.00
2019-05-09T06:20:45.606Z,98972.00
2019-05-09T06:23:17.578Z,98968.00
2019-05-09T06:25:48.575Z,98979.00
2019-05-09T06:28:19.107Z,98973.00
2019-05-09T06:30:55.409Z,98975.00
2019-05-09T06:33:28.409Z,98969.00
2019-05-09T06:35:58.919Z,98969.00
2019-05-09T06:38:29.904Z,98971.00
2019-05-09T06:41:00.291Z,98968.00
2019-05-09T06:43:33.508Z,98971.00
2019-05-09T06:46:20.297Z,98969.00
2019-05-09T06:48:50.687Z,98973.00
2019-05-09T06:51:21.430Z,98979.00
2019-05-09T06:53:51.913Z,98971.00
2019-05-09T06:56:22.638Z,98971.00
2019-05-09T06:58:55.509Z,98977.00
2019-05-09T07:01:48.846Z,98968.00
2019-05-09T07:04:32.942Z,98972.00
2019-05-09T07:07:11.550Z,98975.00
2019-05-09T07:09:53.925Z,98968.00
2019-05-09T07:12:24.668Z,98977.00
2019-05-09T07:14:55.315Z,98973.00
2019-05-09T07:17:31.935Z,98978.00
2019-05-09T07:19:59.024Z,98973.00
2019-05-09T07:22:51.094Z,98970.00
2019-05-09T07:25:40.712Z,98950.00
2019-05-09T07:28:18.069Z,98964.00
2019-05-09T07:31:19.715Z,98972.00
2019-05-09T07:33:54.059Z,98955.00
2019-05-09T07:36:24.446Z,98959.00
2019-05-09T07:38:55.289Z,98957.00
2019-05-09T07:41:28.226Z,98957.00
2019-05-09T07:43:58.525Z,98963.00
2019-05-09T07:46:30.276Z,98968.00
2019-05-09T07:49:04.246Z,98968.00
2019-05-09T07:51:34.574Z,98966.00
2019-05-09T07:54:20.606Z,98966.00
2019-05-09T07:56:37.940Z,98962.00
2019-05-09T07:59:08.436Z,98966.00
2019-05-09T08:01:39.008Z,98968.00
2019-05-09T08:04:09.542Z,98965.00
2019-05-09T08:06:39.972Z,98971.00
2019-05-09T08:09:10.737Z,98962.00
2019-05-09T08:11:41.494Z,98972.00
2019-05-09T08:14:12.050Z,98968.00
2019-05-09T08:16:42.437Z,98960.00
2019-05-09T08:19:12.867Z,98961.00
2019-05-09T08:21:43.351Z,98965.00
2019-05-09T08:24:13.780Z,98967.00
2019-05-09T08:26:44.153Z,98962.00
2019-05-09T08:29:14.897Z,98960.00
2019-05-09T08:31:48.374Z,98963.00
2019-05-09T08:34:18.793Z,98971.00
2019-05-09T08:36:50.073Z,98961.00
2019-05-09T08:39:22.827Z,98964.00
2019-05-09T08:41:53.564Z,98966.00
2019-05-09T08:44:23.914Z,98967.00
2019-05-09T08:46:54.322Z,98967.00
2019-05-09T08:49:30.842Z,98971.00
2019-05-09T08:52:14.976Z,98976.00
2019-05-09T08:54:51.367Z,98971.00
2019-05-09T08:57:22.195Z,98981.00
2019-05-09T08:59:53.263Z,98975.00
2019-05-09T09:02:23.604Z,98967.00
2019-05-09T09:04:54.247Z,98968.00
2019-05-09T09:07:24.659Z,98964.00
2019-05-09T09:09:57.577Z,98978.00
2019-05-09T09:12:34.094Z,98973.00
2019-05-09T09:14:59.963Z,98976.00
2019-05-09T09:17:30.345Z,98965.00
2019-05-09T09:20:02.264Z,98964.00
2019-05-09T09:22:32.606Z,98976.00
2019-05-09T09:25:02.975Z,98973.00
2019-05-09T09:27:33.507Z,98960.00
2019-05-09T09:30:17.806Z,98957.00
2019-05-09T09:32:38.788Z,98959.00
2019-05-09T09:35:11.034Z,98965.00
2019-05-09T09:37:48.502Z,98963.00
2019-05-09T09:40:13.782Z,98964.00
2019-05-09T09:42:44.753Z,98967.00
2019-05-09T09:45:18.319Z,98968.00
2019-05-09T09:47:48.892Z,98974.00
2019-05-09T09:50:19.245Z,98954.00
2019-05-09T09:52:49.602Z,98970.00
2019-05-09T09:55:20.046Z,98961.00
2019-05-09T09:57:51.340Z,98955.00
2019-05-09T10:01:03.398Z,98950.00
2019-05-09T10:03:34.275Z,98960.00
2019-05-09T10:06:05.392Z,98950.00
2019-05-09T10:08:39.188Z,98955.00
2019-05-09T10:11:08.751Z,98957.00
2019-05-09T10:13:39.536Z,98962.00
2019-05-09T10:16:41.876Z,98962.00
2019-05-09T10:19:31.324Z,98960.00
2019-05-09T10:22:03.873Z,98958.00
2019-05-09T10:24:35.324Z,98956.00
2019-05-09T10:27:13.440Z,98947.00
2019-05-09T10:29:43.812Z,98943.00
2019-05-09T10:32:15.086Z,98939.00
2019-05-09T10:34:48.903Z,98936.00
2019-05-09T10:37:18.652Z,98942.00
2019-05-09T10:39:49.372Z,98944.00
2019-05-09T10:42:41.799Z,98956.00
2019-05-09T10:45:34.706Z,98951.00
2019-05-09T10:48:05.109Z,98952.00
2019-05-09T10:50:43.073Z,98945.00
2019-05-09T10:53:08.219Z,98953.00
2019-05-09T10:55:40.766Z,98954.00
2019-05-09T10:58:11.869Z,98954.00
2019-05-09T11:00:42.316Z,98943.00
2019-05-09T11:03:13.063Z,98949.00
2019-05-09T11:05:43.495Z,98940.00
2019-05-09T11:08:13.859Z,98944.00
2019-05-09T11:10:44.401Z,98943.00
2019-05-09T11:13:18.012Z,98939.00
2019-05-09T11:15:48.121Z,98950.00
2019-05-09T11:18:18.849Z,98939.00
2019-05-09T11:20:49.231Z,98940.00
2019-05-09T11:23:20.779Z,98940.00
2019-05-09T11:25:51.423Z,98943.00
2019-05-09T11:28:22.099Z,98932.00
2019-05-09T11:30:52.855Z,98940.00
2019-05-09T11:33:23.979Z,98935.00
2019-05-09T11:35:54.883Z,98950.00
2019-05-09T11:38:33.582Z,98941.00
2019-05-09T11:41:13.357Z,98944.00
2019-05-09T11:43:44.439Z,98938.00
2019-05-09T11:46:18.018Z,98950.00
2019-05-09T11:48:48.002Z,98944.00
2019-05-09T11:51:22.627Z,98947.00
2019-05-09T11:54:29.723Z,98943.00
2019-05-09T11:56:57.644Z,98957.00
2019-05-09T11:59:28.215Z,98962.00
2019-05-09T12:01:58.865Z,98955.00
2019-05-09T12:04:30.465Z,98955.00
2019-05-09T12:07:01.149Z,98951.00
2019-05-09T12:09:31.684Z,98953.00
2019-05-09T12:12:02.465Z,98955.00
2019-05-09T12:14:32.982Z,98959.00
2019-05-09T12:17:03.599Z,98953.00
2019-05-09T12:19:33.971Z,98963.00
2019-05-09T12:22:04.320Z,98958.00
2019-05-09T12:24:38.451Z,98957.00
2019-05-09T12:27:08.877Z,98959.00
2019-05-09T12:29:39.455Z,98958.00
2019-05-09T12:32:10.089Z,98959.00
2019-05-09T12:34:50.446Z,98974.00
2019-05-09T12:37:23.186Z,98972.00
2019-05-09T12:39:53.596Z,98969.00
2019-05-09T12:42:24.005Z,98972.00
2019-05-09T12:44:54.605Z,98977.00
2019-05-09T12:47:25.353Z,98970.00
2019-05-09T12:50:00.419Z,98988.00
2019-05-09T12:52:29.544Z,98976.00
2019-05-09T12:54:59.894Z,98971.00
2019-05-09T12:57:31.306Z,98972.00
2019-05-09T13:00:02.305Z,98964.00
2019-05-09T13:02:33.008Z,98967.00
2019-05-09T13:05:03.455Z,98971.00
2019-05-09T13:07:33.822Z,98968.00
2019-05-09T13:10:05.214Z,98970.00
2019-05-09T13:12:38.796Z,98972.00
2019-05-09T13:15:09.773Z,98974.00
2019-05-09T13:17:42.787Z,98975.00
2019-05-09T13:20:17.944Z,98982.00
2019-05-09T13:22:48.143Z,98994.00
2019-05-09T13:25:19.228Z,98994.00
2019-05-09T13:27:52.688Z,98988.00
2019-05-09T13:30:21.753Z,98990.00
2019-05-09T13:32:52.054Z,98983.00
2019-05-09T13:35:22.499Z,98993.00
2019-05-09T13:37:52.885Z,98987.00
2019-05-09T13:40:23.279Z,98984.00
2019-05-09T13:42:53.976Z,98989.00
2019-05-09T13:45:24.453Z,98989.00
2019-05-09T13:47:54.803Z,98999.00
2019-05-09T13:50:25.223Z,98997.00
2019-05-09T13:52:58.159Z,98996.00
2019-05-09T13:55:28.224Z,98996.00
2019-05-09T13:57:59.439Z,99003.00
2019-05-09T14:00:29.950Z,99000.00
2019-05-09T14:03:00.568Z,99003.00
2019-05-09T14:05:31.215Z,99012.00
2019-05-09T14:08:03.825Z,99002.00
2019-05-09T14:10:33.965Z,99012.00
2019-05-09T14:13:10.084Z,99013.00
2019-05-09T14:15:37.062Z,99017.00
2019-05-09T14:18:08.774Z,99018.00
2019-05-09T14:20:39.236Z,99020.00
2019-05-09T14:23:11.723Z,99016.00
2019-05-09T14:25:41.987Z,99023.00
2019-05-09T14:28:13.285Z,99021.00
2019-05-09T14:30:43.670Z,99018.00
2019-05-09T14:33:16.550Z,99028.00
2019-05-09T14:35:47.916Z,99035.00
2019-05-09T14:38:18.737Z,99038.00
2019-05-09T14:40:49.141Z,99040.00
2019-05-09T14:43:19.469Z,99030.00
2019-05-09T14:45:49.853Z,99036.00
2019-05-09T14:48:20.236Z,99041.00
2019-05-09T14:50:50.641Z,99040.00
2019-05-09T14:53:21.105Z,99052.00
2019-05-09T14:55:51.718Z,99042.00
2019-05-09T14:58:22.473Z,99043.00
2019-05-09T15:00:53.570Z,99044.00
2019-05-09T15:03:27.874Z,99034.00
2019-05-09T15:05:59.505Z,99051.00
2019-05-09T15:08:34.431Z,99051.00
2019-05-09T15:11:05.418Z,99064.00
2019-05-09T15:13:36.028Z,99055.00
2019-05-09T15:16:08.789Z,99064.00
2019-05-09T15:18:39.034Z,99061.00
2019-05-09T15:21:09.400Z,99069.00
2019-05-09T15:23:40.320Z,99070.00
2019-05-09T15:26:10.692Z,99071.00
2019-05-09T15:28:41.599Z,99073.00
2019-05-09T15:31:11.968Z,99071.00
2019-05-09T15:33:42.907Z,99075.00
2019-05-09T15:36:13.289Z,99077.00
2019-05-09T15:38:43.622Z,99077.00
2019-05-09T15:41:18.385Z,99074.00
2019-05-09T15:43:48.971Z,99072.00
2019-05-09T15:46:25.023Z,99075.00
2019-05-09T15:48:55.392Z,99079.00
2019-05-09T15:51:27.925Z,99079.00
2019-05-09T15:53:58.396Z,99083.00
2019-05-09T15:56:28.952Z,99083.00
2019-05-09T15:58:59.670Z,99081.00
2019-05-09T16:01:30.035Z,99079.00
2019-05-09T16:04:01.015Z,99085.00
2019-05-09T16:06:33.003Z,99077.00
2019-05-09T16:09:08.118Z,99079.00
2019-05-09T16:11:37.740Z,99086.00
2019-05-09T16:14:09.462Z,99085.00
2019-05-09T16:16:40.437Z,99087.00
2019-05-09T16:19:10.834Z,99093.00
2019-05-09T16:21:41.711Z,99089.00
2019-05-09T16:24:12.626Z,99092.00
2019-05-09T16:26:43.309Z,99099.00
2019-05-09T16:29:14.426Z,99093.00
2019-05-09T16:31:44.868Z,99099.00
2019-05-09T16:34:48.241Z,99090.00
2019-05-09T16:40:29.925Z,99098.00
2019-05-09T16:43:00.641Z,99103.00
2019-05-09T16:45:31.049Z,99102.00
2019-05-09T16:48:02.797Z,99104.00
2019-05-09T16:50:33.183Z,99097.00
2019-05-09T16:53:03.740Z,99102.00
2019-05-09T16:55:38.090Z,99095.00
2019-05-09T16:58:08.781Z,99102.00
2019-05-09T17:00:49.549Z,99100.00
2019-05-09T17:03:20.161Z,99105.00
2019-05-09T17:05:50.586Z,99100.00
2019-05-09T17:08:20.954Z,99107.00
2019-05-09T17:10:51.389Z,99109.00
2019-05-09T17:13:22.149Z,99102.00
2019-05-09T17:15:52.524Z,99102.00
2019-05-09T17:18:23.200Z,99111.00
2019-05-09T17:21:24.131Z,99108.00
2019-05-09T17:23:50.781Z,99116.00
2019-05-09T17:26:21.344Z,99120.00
2019-05-09T17:28:53.826Z,99122.00
2019-05-09T17:31:24.516Z,99137.00
2019-05-09T17:33:54.877Z,99121.00
2019-05-09T17:36:28.539Z,99130.00
2019-05-09T17:38:59.122Z,99132.00
2019-05-09T17:41:29.485Z,99134.00
2019-05-09T17:44:08.588Z,99138.00
2019-05-09T17:46:39.059Z,99139.00
2019-05-09T17:49:09.913Z,99143.00
2019-05-09T17:51:40.828Z,99144.00
2019-05-09T17:54:11.303Z,99147.00
2019-05-09T17:56:41.812Z,99149.00
2019-05-09T17:59:13.206Z,99142.00
2019-05-09T18:01:43.703Z,99160.00
2019-05-09T18:04:14.549Z,99155.00
2019-05-09T18:06:44.933Z,99156.00
2019-05-09T18:09:15.309Z,99154.00
2019-05-09T18:11:48.305Z,99165.00
2019-05-09T18:14:19.363Z,99168.00
2019-05-09T18:16:49.762Z,99161.00
2019-05-09T18:19:26.163Z,99160.00
2019-05-09T18:21:59.645Z,99176.00
2019-05-09T18:24:30.434Z,99175.00
2019-05-09T18:27:00.858Z,99182.00
2019-05-09T18:29:31.349Z,99185.00
2019-05-09T18:32:15.541Z,99186.00
2019-05-09T18:34:48.481Z,99187.00
2019-05-09T18:37:18.182Z,99188.00
2019-05-09T18:39:49.832Z,99189.00
2019-05-09T18:42:20.195Z,99193.00
2019-05-09T18:44:50.707Z,99197.00
2019-05-09T18:47:22.190Z,99199.00
2019-05-09T18:49:52.566Z,99197.00
2019-05-09T18:52:22.933Z,99206.00
2019-05-09T18:54:53.689Z,99205.00
2019-05-09T18:57:24.095Z,99214.00
2019-05-09T18:59:54.523Z,99221.00
2019-05-09T19:02:25.374Z,99222.00
2019-05-09T19:04:56.265Z,99218.00
2019-05-09T19:07:31.148Z,99221.00
2019-05-09T19:10:01.589Z,99212.00
2019-05-09T19:12:32.336Z,99213.00
2019-05-09T19:15:04.345Z,99216.00
2019-05-09T19:17:54.766Z,99223.00
2019-05-09T19:20:50.249Z,99226.00
2019-05-09T19:23:20.645Z,99240.00
2019-05-09T19:25:51.381Z,99245.00
2019-05-09T19:28:24.245Z,99255.00
2019-05-09T19:30:54.237Z,99249.00
2019-05-09T19:33:24.677Z,99248.00
2019-05-09T19:35:55.235Z,99249.00
2019-05-09T19:38:26.120Z,99246.00
2019-05-09T19:40:56.514Z,99250.00
2019-05-09T19:43:27.012Z,99247.00
2019-05-09T19:45:57.426Z,99260.00
2019-05-09T19:48:27.827Z,99264.00
2019-05-09T19:50:58.924Z,99268.00
2019-05-09T19:53:29.656Z,99266.00
2019-05-09T19:56:00.762Z,99278.00
2019-05-09T19:58:31.632Z,99276.00
2019-05-09T20:01:02.483Z,99270.00
2019-05-09T20:03:34.162Z,99275.00
2019-05-09T20:06:04.614Z,99281.00
2019-05-09T20:08:34.975Z,99287.00
2019-05-09T20:11:18.128Z,99286.00
2019-05-09T20:14:09.074Z,99287.00
2019-05-09T20:16:43.071Z,99289.00
2019-05-09T20:19:13.464Z,99285.00
2019-05-09T20:21:43.955Z,99295.00
2019-05-09T20:24:14.406Z,99287.00
2019-05-09T20:26:44.706Z,99297.00
2019-05-09T20:29:15.112Z,99300.00
2019-05-09T20:31:45.566Z,99300.00
2019-05-09T20:34:15.954Z,99306.00
2019-05-09T20:36:46.620Z,99304.00
2019-05-09T20:39:17.223Z,99314.00
2019-05-09T20:41:47.797Z,99313.00
2019-05-09T20:44:18.532Z,99311.00
2019-05-09T20:46:49.393Z,99308.00
2019-05-09T20:49:20.695Z,99316.00
2019-05-09T20:51:51.316Z,99318.00
2019-05-09T20:54:21.872Z,99315.00
2019-05-09T20:56:52.990Z,99319.00
2019-05-09T20:59:23.875Z,99316.00
2019-05-09T21:01:55.064Z,99312.00
2019-05-09T21:04:25.756Z,99320.00
2019-05-09T21:06:58.159Z,99320.00
2019-05-09T21:09:29.011Z,99326.00
2019-05-09T21:11:59.613Z,99322.00
2019-05-09T21:14:30.598Z,99325.00
2019-05-09T21:17:01.974Z,99320.00
2019-05-09T21:19:32.522Z,99326.00
2019-05-09T21:22:03.354Z,99339.00
2019-05-09T21:24:34.312Z,99382.00
2019-05-09T21:27:04.820Z,99374.00
2019-05-09T21:29:35.373Z,99374.00
2019-05-09T21:32:06.231Z,99373.00
2019-05-09T21:34:36.862Z,99387.00
2019-05-09T21:37:08.227Z,99379.00
2019-05-09T21:39:39.152Z,99378.00
2019-05-09T21:42:09.478Z,99386.00
2019-05-09T21:44:39.906Z,99395.00
2019-05-09T21:47:10.522Z,99386.00
2019-05-09T21:49:40.855Z,99387.00
2019-05-09T21:52:11.309Z,99394.00
2019-05-09T21:54:41.750Z,99391.00
2019-05-09T21:57:12.106Z,99393.00
2019-05-09T21:59:42.863Z,99390.00
2019-05-09T22:02:14.233Z,99398.00
2019-05-09T22:04:44.870Z,99400.00
2019-05-09T22:07:15.286Z,99397.00
2019-05-09T22:09:45.588Z,99413.00
2019-05-09T22:12:28.105Z,99410.00
2019-05-09T22:14:58.456Z,99430.00
2019-05-09T22:17:38.311Z,99413.00
2019-05-09T22:20:11.329Z,99422.00
2019-05-09T22:22:42.052Z,99419.00
2019-05-09T22:25:13.148Z,99418.00
2019-05-09T22:27:43.625Z,99410.00
2019-05-09T22:30:16.137Z,99418.00
2019-05-09T22:32:46.507Z,99421.00
2019-05-09T22:35:18.360Z,99425.00
2019-05-09T22:37:48.791Z,99427.00
2019-05-09T22:40:19.359Z,99429.00
2019-05-09T22:42:49.698Z,99435.00
2019-05-09T22:45:20.431Z,99435.00
2019-05-09T22:47:57.091Z,99436.00
2019-05-09T22:50:27.514Z,99431.00
2019-05-09T22:52:58.350Z,99444.00
2019-05-09T22:55:30.754Z,99442.00
2019-05-09T22:58:01.271Z,99450.00
2019-05-09T23:00:31.890Z,99458.00
2019-05-09T23:03:02.483Z,99460.00
2019-05-09T23:05:32.972Z,99447.00
2019-05-09T23:08:03.540Z,99454.00
2019-05-09T23:10:33.897Z,99453.00
2019-05-09T23:13:06.382Z,99456.00
2019-05-09T23:15:36.932Z,99449.00
2019-05-09T23:18:07.714Z,99458.00
2019-05-09T23:20:50.099Z,99450.00
2019-05-09T23:23:39.484Z,99461.00
2019-05-09T23:26:12.191Z,99454.00
2019-05-09T23:28:42.541Z,99456.00
2019-05-09T23:31:17.048Z,99459.00
2019-05-09T23:33:49.540Z,99461.00
2019-05-09T23:36:19.949Z,99463.00
2019-05-09T23:39:28.256Z,99446.00
2019-05-09T23:41:58.907Z,99454.00
2019-05-09T23:44:29.757Z,99455.00
2019-05-09T23:47:00.534Z,99455.00
2019-05-09T23:49:31.860Z,99457.00
2019-05-09T23:52:13.617Z,99462.00
2019-05-09T23:55:01.566Z,99455.00
2019-05-09T23:57:49.760Z,99467.00
